sensor_id;sensor_type;location;lat;lon;timestamp;pressure;altitude;pressure_sealevel;temperature;humidity
79678;BME280;69145;45.544;10.214;2023-07-29T06:37:45;99846.75;;;24.82;61.55
79678;BME280;69145;45.544;10.214;2023-07-29T06:40:43;99855.22;;;24.84;61.63
79678;BME280;69145;45.544;10.214;2023-07-29T06:43:23;99853.88;;;24.87;61.77
79678;BME280;69145;45.544;10.214;2023-07-29T06:49:26;99856.50;;;24.92;61.27
79678;BME280;69145;45.544;10.214;2023-07-29T07:16:09;99845.94;;;25.20;60.46
79678;BME280;69145;45.544;10.214;2023-07-29T08:31:34;99849.66;;;25.48;60.07
79678;BME280;69145;45.544;10.214;2023-07-29T08:34:10;99841.91;;;25.56;59.88
79678;BME280;69145;45.544;10.214;2023-07-29T08:36:41;99846.38;;;25.61;60.03
79678;BME280;69145;45.544;10.214;2023-07-29T08:39:36;99842.19;;;25.55;59.99
79678;BME280;69145;45.544;10.214;2023-07-29T08:42:07;99840.09;;;25.52;60.11
79678;BME280;69145;45.544;10.214;2023-07-29T08:44:42;99839.31;;;25.51;60.17
79678;BME280;69145;45.544;10.214;2023-07-29T08:47:08;99835.09;;;25.50;60.38
79678;BME280;69145;45.544;10.214;2023-07-29T08:49:34;99845.16;;;25.48;60.40
79678;BME280;69145;45.544;10.214;2023-07-29T08:51:59;99841.72;;;25.48;60.70
79678;BME280;69145;45.544;10.214;2023-07-29T08:54:26;99843.53;;;25.52;60.52
79678;BME280;69145;45.544;10.214;2023-07-29T08:56:52;99838.41;;;25.61;60.34
79678;BME280;69145;45.544;10.214;2023-07-29T08:59:17;99838.69;;;25.59;60.50
79678;BME280;69145;45.544;10.214;2023-07-29T09:01:44;99838.69;;;25.59;60.35
79678;BME280;69145;45.544;10.214;2023-07-29T09:04:10;99837.34;;;25.62;60.15
79678;BME280;69145;45.544;10.214;2023-07-29T09:06:36;99840.72;;;25.68;60.23
79678;BME280;69145;45.544;10.214;2023-07-29T09:09:03;99839.63;;;25.69;60.09
79678;BME280;69145;45.544;10.214;2023-07-29T09:11:28;99838.06;;;25.68;60.21
79678;BME280;69145;45.544;10.214;2023-07-29T09:13:54;99842.56;;;25.67;60.45
79678;BME280;69145;45.544;10.214;2023-07-29T09:16:20;99839.97;;;25.62;60.48
79678;BME280;69145;45.544;10.214;2023-07-29T09:18:50;99836.53;;;25.61;60.70
79678;BME280;69145;45.544;10.214;2023-07-29T09:21:17;99829.66;;;25.60;60.79
79678;BME280;69145;45.544;10.214;2023-07-29T09:23:43;99824.03;;;25.67;60.46
79678;BME280;69145;45.544;10.214;2023-07-29T09:26:09;99823.19;;;25.72;60.22
79678;BME280;69145;45.544;10.214;2023-07-29T09:28:36;99822.16;;;25.68;60.48
79678;BME280;69145;45.544;10.214;2023-07-29T09:31:02;99823.50;;;25.65;60.70
79678;BME280;69145;45.544;10.214;2023-07-29T09:33:37;99816.38;;;25.66;60.62
79678;BME280;69145;45.544;10.214;2023-07-29T09:36:09;99815.84;;;25.63;60.85
79678;BME280;69145;45.544;10.214;2023-07-29T09:38:35;99830.13;;;25.68;60.45
79678;BME280;69145;45.544;10.214;2023-07-29T09:41:01;99821.34;;;25.72;60.77
79678;BME280;69145;45.544;10.214;2023-07-29T09:43:34;99822.03;;;25.78;60.40
79678;BME280;69145;45.544;10.214;2023-07-29T09:46:04;99819.63;;;25.81;60.58
79678;BME280;69145;45.544;10.214;2023-07-29T09:48:36;99820.41;;;25.82;60.32
79678;BME280;69145;45.544;10.214;2023-07-29T09:51:12;99810.63;;;25.82;60.60
79678;BME280;69145;45.544;10.214;2023-07-29T09:53:44;99817.84;;;25.77;60.59
79678;BME280;69145;45.544;10.214;2023-07-29T09:56:10;99812.09;;;25.70;61.25
79678;BME280;69145;45.544;10.214;2023-07-29T09:58:37;99813.63;;;25.76;60.89
79678;BME280;69145;45.544;10.214;2023-07-29T10:01:07;99803.72;;;25.81;60.98
79678;BME280;69145;45.544;10.214;2023-07-29T10:03:33;99800.84;;;25.78;61.14
79678;BME280;69145;45.544;10.214;2023-07-29T10:06:03;99805.16;;;25.74;61.23
79678;BME280;69145;45.544;10.214;2023-07-29T10:08:30;99804.59;;;25.77;61.26
79678;BME280;69145;45.544;10.214;2023-07-29T10:10:59;99798.41;;;25.81;61.21
79678;BME280;69145;45.544;10.214;2023-07-29T10:13:25;99802.44;;;25.79;61.12
79678;BME280;69145;45.544;10.214;2023-07-29T10:15:52;99797.13;;;25.79;61.53
79678;BME280;69145;45.544;10.214;2023-07-29T10:18:18;99801.41;;;25.75;61.68
79678;BME280;69145;45.544;10.214;2023-07-29T10:20:44;99799.56;;;25.75;61.49
79678;BME280;69145;45.544;10.214;2023-07-29T10:23:12;99796.84;;;25.80;62.49
79678;BME280;69145;45.544;10.214;2023-07-29T10:25:39;99802.88;;;25.86;62.24
79678;BME280;69145;45.544;10.214;2023-07-29T10:28:07;99803.91;;;25.90;62.44
79678;BME280;69145;45.544;10.214;2023-07-29T10:30:33;99794.06;;;25.90;62.18
79678;BME280;69145;45.544;10.214;2023-07-29T10:33:04;99795.38;;;25.93;62.03
79678;BME280;69145;45.544;10.214;2023-07-29T10:35:32;99782.13;;;25.93;62.00
79678;BME280;69145;45.544;10.214;2023-07-29T10:37:59;99789.34;;;25.87;62.06
79678;BME280;69145;45.544;10.214;2023-07-29T10:40:24;99790.97;;;25.83;62.20
79678;BME280;69145;45.544;10.214;2023-07-29T10:43:09;99778.81;;;25.82;62.27
79678;BME280;69145;45.544;10.214;2023-07-29T10:45:38;99788.03;;;25.85;62.61
79678;BME280;69145;45.544;10.214;2023-07-29T10:48:10;99783.09;;;25.78;62.65
79678;BME280;69145;45.544;10.214;2023-07-29T10:50:35;99778.81;;;25.82;62.47
79678;BME280;69145;45.544;10.214;2023-07-29T10:53:00;99782.72;;;25.85;62.25
79678;BME280;69145;45.544;10.214;2023-07-29T10:55:28;99775.00;;;25.88;62.38
79678;BME280;69145;45.544;10.214;2023-07-29T10:58:21;99773.44;;;25.87;62.30
79678;BME280;69145;45.544;10.214;2023-07-29T11:00:46;99778.53;;;25.84;62.43
79678;BME280;69145;45.544;10.214;2023-07-29T11:03:13;99775.88;;;25.84;62.26
79678;BME280;69145;45.544;10.214;2023-07-29T11:05:44;99771.06;;;25.86;62.45
79678;BME280;69145;45.544;10.214;2023-07-29T11:13:32;99779.03;;;25.86;62.67
79678;BME280;69145;45.544;10.214;2023-07-29T11:15:59;99779.53;;;25.88;62.31
79678;BME280;69145;45.544;10.214;2023-07-29T11:18:29;99782.19;;;25.88;62.52
79678;BME280;69145;45.544;10.214;2023-07-29T11:20:55;99773.16;;;25.89;62.53
79678;BME280;69145;45.544;10.214;2023-07-29T11:23:30;99769.69;;;25.88;62.47
79678;BME280;69145;45.544;10.214;2023-07-29T11:25:56;99766.22;;;25.93;62.46
79678;BME280;69145;45.544;10.214;2023-07-29T11:28:22;99771.22;;;25.94;62.34
79678;BME280;69145;45.544;10.214;2023-07-29T11:30:47;99764.34;;;25.93;62.33
79678;BME280;69145;45.544;10.214;2023-07-29T11:33:14;99762.19;;;25.95;62.21
79678;BME280;69145;45.544;10.214;2023-07-29T11:35:42;99760.91;;;25.93;62.15
79678;BME280;69145;45.544;10.214;2023-07-29T11:38:07;99755.81;;;25.96;62.18
79678;BME280;69145;45.544;10.214;2023-07-29T11:40:33;99763.28;;;25.94;62.11
79678;BME280;69145;45.544;10.214;2023-07-29T11:42:58;99761.41;;;25.95;62.29
79678;BME280;69145;45.544;10.214;2023-07-29T11:45:23;99755.81;;;25.96;62.27
79678;BME280;69145;45.544;10.214;2023-07-29T11:47:49;99760.84;;;25.98;62.02
79678;BME280;69145;45.544;10.214;2023-07-29T11:50:15;99760.53;;;25.99;61.97
79678;BME280;69145;45.544;10.214;2023-07-29T11:52:46;99755.53;;;25.98;62.29
79678;BME280;69145;45.544;10.214;2023-07-29T11:55:13;99748.88;;;26.00;62.43
79678;BME280;69145;45.544;10.214;2023-07-29T11:57:39;99748.59;;;26.02;62.46
79678;BME280;69145;45.544;10.214;2023-07-29T12:00:09;99745.16;;;26.01;62.04
79678;BME280;69145;45.544;10.214;2023-07-29T12:02:40;99749.66;;;26.01;62.31
79678;BME280;69145;45.544;10.214;2023-07-29T12:05:07;99735.06;;;26.03;62.61
79678;BME280;69145;45.544;10.214;2023-07-29T12:07:33;99733.16;;;26.09;62.56
79678;BME280;69145;45.544;10.214;2023-07-29T12:09:59;99728.63;;;26.09;62.66
79678;BME280;69145;45.544;10.214;2023-07-29T12:12:24;99737.06;;;26.11;62.71
79678;BME280;69145;45.544;10.214;2023-07-29T12:14:50;99730.19;;;26.10;62.65
79678;BME280;69145;45.544;10.214;2023-07-29T12:17:15;99741.59;;;26.11;62.55
79678;BME280;69145;45.544;10.214;2023-07-29T12:19:41;99742.16;;;26.08;62.58
79678;BME280;69145;45.544;10.214;2023-07-29T12:22:09;99729.69;;;26.08;62.80
79678;BME280;69145;45.544;10.214;2023-07-29T12:24:40;99730.50;;;26.09;62.71
79678;BME280;69145;45.544;10.214;2023-07-29T12:27:11;99726.47;;;26.11;62.81
79678;BME280;69145;45.544;10.214;2023-07-29T12:29:41;99730.13;;;26.15;62.67
79678;BME280;69145;45.544;10.214;2023-07-29T12:32:07;99723.56;;;26.13;62.71
79678;BME280;69145;45.544;10.214;2023-07-29T12:34:32;99707.63;;;26.13;62.88
79678;BME280;69145;45.544;10.214;2023-07-29T12:36:58;99707.06;;;26.16;62.93
79678;BME280;69145;45.544;10.214;2023-07-29T12:39:29;99704.41;;;26.16;63.19
79678;BME280;69145;45.544;10.214;2023-07-29T12:41:56;99701.47;;;26.17;62.69
79678;BME280;69145;45.544;10.214;2023-07-29T12:44:31;99712.56;;;26.19;62.79
79678;BME280;69145;45.544;10.214;2023-07-29T12:46:56;99704.41;;;26.16;63.07
79678;BME280;69145;45.544;10.214;2023-07-29T12:49:33;99705.66;;;26.18;62.93
79678;BME280;69145;45.544;10.214;2023-07-29T13:04:55;99689.56;;;26.15;62.92
79678;BME280;69145;45.544;10.214;2023-07-29T13:07:21;99680.03;;;26.14;62.75
79678;BME280;69145;45.544;10.214;2023-07-29T13:09:46;99670.50;;;26.13;63.05
79678;BME280;69145;45.544;10.214;2023-07-29T13:12:15;99674.44;;;26.15;62.78
79678;BME280;69145;45.544;10.214;2023-07-29T13:14:40;99683.41;;;26.19;62.98
79678;BME280;69145;45.544;10.214;2023-07-29T13:17:05;99673.59;;;26.20;62.73
79678;BME280;69145;45.544;10.214;2023-07-29T13:19:31;99670.94;;;26.20;62.54
79678;BME280;69145;45.544;10.214;2023-07-29T13:21:56;99670.56;;;26.26;62.46
79678;BME280;69145;45.544;10.214;2023-07-29T13:24:21;99664.25;;;26.22;62.42
79678;BME280;69145;45.544;10.214;2023-07-29T13:26:47;99666.91;;;26.22;62.65
79678;BME280;69145;45.544;10.214;2023-07-29T13:29:12;99663.44;;;26.22;62.49
79678;BME280;69145;45.544;10.214;2023-07-29T13:31:40;99672.50;;;26.21;62.59
79678;BME280;69145;45.544;10.214;2023-07-29T13:34:06;99661.38;;;26.19;62.77
79678;BME280;69145;45.544;10.214;2023-07-29T13:36:32;99660.03;;;26.21;62.40
79678;BME280;69145;45.544;10.214;2023-07-29T13:38:58;99655.50;;;26.22;62.06
79678;BME280;69145;45.544;10.214;2023-07-29T13:41:23;99655.50;;;26.22;62.27
79678;BME280;69145;45.544;10.214;2023-07-29T13:43:48;99653.63;;;26.22;62.31
79678;BME280;69145;45.544;10.214;2023-07-29T13:46:14;99660.78;;;26.22;62.38
79678;BME280;69145;45.544;10.214;2023-07-29T13:48:39;99657.28;;;26.26;61.93
79678;BME280;69145;45.544;10.214;2023-07-29T13:51:04;99660.44;;;26.28;61.77
79678;BME280;69145;45.544;10.214;2023-07-29T13:53:30;99658.28;;;26.30;61.58
79678;BME280;69145;45.544;10.214;2023-07-29T13:55:55;99656.50;;;26.26;61.90
79678;BME280;69145;45.544;10.214;2023-07-29T13:58:24;99659.16;;;26.26;61.55
79678;BME280;69145;45.544;10.214;2023-07-29T14:00:52;99654.34;;;26.28;61.42
79678;BME280;69145;45.544;10.214;2023-07-29T14:03:20;99659.06;;;26.31;61.12
79678;BME280;69145;45.544;10.214;2023-07-29T14:05:46;99655.66;;;26.30;61.47
79678;BME280;69145;45.544;10.214;2023-07-29T14:08:11;99652.00;;;26.26;61.43
79678;BME280;69145;45.544;10.214;2023-07-29T14:10:36;99642.19;;;26.27;61.34
79678;BME280;69145;45.544;10.214;2023-07-29T14:13:01;99648.25;;;26.27;61.61
79678;BME280;69145;45.544;10.214;2023-07-29T14:15:27;99642.94;;;26.27;61.55
79678;BME280;69145;45.544;10.214;2023-07-29T14:17:53;99638.72;;;26.26;61.56
79678;BME280;69145;45.544;10.214;2023-07-29T14:20:19;99641.66;;;26.25;61.49
79678;BME280;69145;45.544;10.214;2023-07-29T14:22:45;99637.13;;;26.25;61.43
79678;BME280;69145;45.544;10.214;2023-07-29T14:25:10;99642.44;;;26.25;61.67
79678;BME280;69145;45.544;10.214;2023-07-29T14:27:36;99639.53;;;26.27;61.38
79678;BME280;69145;45.544;10.214;2023-07-29T14:30:02;99636.88;;;26.27;61.30
79678;BME280;69145;45.544;10.214;2023-07-29T14:32:27;99640.28;;;26.27;61.51
79678;BME280;69145;45.544;10.214;2023-07-29T14:34:53;99629.19;;;26.25;61.57
79678;BME280;69145;45.544;10.214;2023-07-29T14:37:18;99624.97;;;26.24;61.69
79678;BME280;69145;45.544;10.214;2023-07-29T14:39:44;99624.47;;;26.22;61.59
79678;BME280;69145;45.544;10.214;2023-07-29T14:42:09;99628.41;;;26.25;61.83
79678;BME280;69145;45.544;10.214;2023-07-29T14:44:34;99628.13;;;26.26;62.07
79678;BME280;69145;45.544;10.214;2023-07-29T14:47:00;99622.50;;;26.28;61.73
79678;BME280;69145;45.544;10.214;2023-07-29T14:49:25;99620.97;;;26.27;61.95
79678;BME280;69145;45.544;10.214;2023-07-29T14:51:50;99623.81;;;26.30;61.55
79678;BME280;69145;45.544;10.214;2023-07-29T14:54:16;99612.09;;;26.31;61.41
79678;BME280;69145;45.544;10.214;2023-07-29T14:56:41;99607.41;;;26.28;61.49
79678;BME280;69145;45.544;10.214;2023-07-29T14:59:07;99608.66;;;26.31;61.52
79678;BME280;69145;45.544;10.214;2023-07-29T15:01:32;99610.34;;;26.27;61.68
79678;BME280;69145;45.544;10.214;2023-07-29T15:03:58;99601.88;;;26.25;61.90
79678;BME280;69145;45.544;10.214;2023-07-29T15:06:23;99595.78;;;26.24;61.96
79678;BME280;69145;45.544;10.214;2023-07-29T15:08:49;99598.66;;;26.28;61.79
79678;BME280;69145;45.544;10.214;2023-07-29T15:11:15;99597.84;;;26.27;61.67
79678;BME280;69145;45.544;10.214;2023-07-29T15:13:43;99594.69;;;26.25;61.78
79678;BME280;69145;45.544;10.214;2023-07-29T15:16:08;99590.97;;;26.26;61.74
79678;BME280;69145;45.544;10.214;2023-07-29T15:18:34;99589.38;;;26.25;61.77
79678;BME280;69145;45.544;10.214;2023-07-29T15:20:59;99584.88;;;26.26;61.76
79678;BME280;69145;45.544;10.214;2023-07-29T15:23:27;99582.72;;;26.28;61.94
79678;BME280;69145;45.544;10.214;2023-07-29T15:25:53;99568.97;;;26.26;61.82
79678;BME280;69145;45.544;10.214;2023-07-29T15:28:18;99567.09;;;26.26;61.74
79678;BME280;69145;45.544;10.214;2023-07-29T15:30:53;99566.59;;;26.24;62.08
79678;BME280;69145;45.544;10.214;2023-07-29T15:33:19;99568.97;;;26.26;61.71
79678;BME280;69145;45.544;10.214;2023-07-29T15:35:46;99571.31;;;26.27;61.53
79678;BME280;69145;45.544;10.214;2023-07-29T15:38:22;99563.38;;;26.27;61.86
79678;BME280;69145;45.544;10.214;2023-07-29T15:40:48;99565.25;;;26.27;61.90
79678;BME280;69145;45.544;10.214;2023-07-29T15:43:17;99569.97;;;26.30;61.75
79678;BME280;69145;45.544;10.214;2023-07-29T15:45:43;99561.50;;;26.28;61.99
79678;BME280;69145;45.544;10.214;2023-07-29T15:48:09;99560.72;;;26.27;62.08
79678;BME280;69145;45.544;10.214;2023-07-29T15:50:34;99559.84;;;26.32;61.33
79678;BME280;69145;45.544;10.214;2023-07-29T15:53:00;99553.97;;;26.35;61.17
79678;BME280;69145;45.544;10.214;2023-07-29T15:55:25;99558.97;;;26.36;61.37
79678;BME280;69145;45.544;10.214;2023-07-29T15:57:51;99559.25;;;26.35;61.61
79678;BME280;69145;45.544;10.214;2023-07-29T16:00:16;99552.69;;;26.32;61.77
79678;BME280;69145;45.544;10.214;2023-07-29T16:02:41;99558.75;;;26.33;61.79
79678;BME280;69145;45.544;10.214;2023-07-29T16:05:07;99561.72;;;26.31;61.77
79678;BME280;69145;45.544;10.214;2023-07-29T16:07:32;99558.00;;;26.32;61.97
79678;BME280;69145;45.544;10.214;2023-07-29T16:09:58;99553.75;;;26.31;61.88
79678;BME280;69145;45.544;10.214;2023-07-29T16:12:23;99544.72;;;26.32;61.96
79678;BME280;69145;45.544;10.214;2023-07-29T16:14:49;99545.00;;;26.31;61.88
79678;BME280;69145;45.544;10.214;2023-07-29T16:17:14;99536.47;;;26.34;61.98
79678;BME280;69145;45.544;10.214;2023-07-29T16:19:57;99533.03;;;26.33;62.01
79678;BME280;69145;45.544;10.214;2023-07-29T16:22:23;99522.72;;;26.32;62.06
79678;BME280;69145;45.544;10.214;2023-07-29T16:24:48;99526.94;;;26.33;61.90
79678;BME280;69145;45.544;10.214;2023-07-29T16:27:13;99531.16;;;26.34;61.72
79678;BME280;69145;45.544;10.214;2023-07-29T16:29:39;99539.13;;;26.34;61.79
79678;BME280;69145;45.544;10.214;2023-07-29T16:32:05;99541.78;;;26.34;61.89
79678;BME280;69145;45.544;10.214;2023-07-29T16:34:30;99545.50;;;26.33;61.98
79678;BME280;69145;45.544;10.214;2023-07-29T16:36:55;99548.16;;;26.33;61.75
79678;BME280;69145;45.544;10.214;2023-07-29T16:39:21;99558.00;;;26.32;61.85
79678;BME280;69145;45.544;10.214;2023-07-29T16:41:46;99554.25;;;26.33;61.66
79678;BME280;69145;45.544;10.214;2023-07-29T16:44:11;99547.38;;;26.32;61.75
79678;BME280;69145;45.544;10.214;2023-07-29T16:46:37;99550.81;;;26.33;61.88
79678;BME280;69145;45.544;10.214;2023-07-29T16:49:03;99542.84;;;26.33;61.78
79678;BME280;69145;45.544;10.214;2023-07-29T16:51:29;99546.78;;;26.35;61.83
79678;BME280;69145;45.544;10.214;2023-07-29T16:53:54;99552.41;;;26.34;61.82
79678;BME280;69145;45.544;10.214;2023-07-29T16:56:21;99544.22;;;26.30;61.82
79678;BME280;69145;45.544;10.214;2023-07-29T16:58:46;99551.91;;;26.32;62.03
79678;BME280;69145;45.544;10.214;2023-07-29T17:01:11;99545.78;;;26.31;62.12
79678;BME280;69145;45.544;10.214;2023-07-29T17:03:37;99546.59;;;26.32;62.16
79678;BME280;69145;45.544;10.214;2023-07-29T17:06:02;99542.09;;;26.32;62.11
79678;BME280;69145;45.544;10.214;2023-07-29T17:08:28;99543.66;;;26.33;62.01
79678;BME280;69145;45.544;10.214;2023-07-29T17:10:53;99544.44;;;26.34;61.99
79678;BME280;69145;45.544;10.214;2023-07-29T17:13:18;99537.53;;;26.33;61.97
79678;BME280;69145;45.544;10.214;2023-07-29T17:15:44;99539.69;;;26.31;61.97
79678;BME280;69145;45.544;10.214;2023-07-29T17:18:09;99533.13;;;26.42;61.62
79678;BME280;69145;45.544;10.214;2023-07-29T17:20:34;99525.97;;;26.56;61.62
79678;BME280;69145;45.544;10.214;2023-07-29T17:22:59;99521.97;;;26.72;61.36
79678;BME280;69145;45.544;10.214;2023-07-29T17:25:25;99524.81;;;26.76;61.18
79678;BME280;69145;45.544;10.214;2023-07-29T17:27:51;99521.84;;;26.77;60.88
79678;BME280;69145;45.544;10.214;2023-07-29T17:30:16;99531.09;;;26.80;61.06
79678;BME280;69145;45.544;10.214;2023-07-29T17:32:42;99524.50;;;26.77;61.27
79678;BME280;69145;45.544;10.214;2023-07-29T17:35:08;99526.09;;;26.78;61.03
79678;BME280;69145;45.544;10.214;2023-07-29T17:37:33;99525.78;;;26.80;60.80
79678;BME280;69145;45.544;10.214;2023-07-29T17:40:00;99528.44;;;26.80;60.79
79678;BME280;69145;45.544;10.214;2023-07-29T17:42:25;99526.09;;;26.78;60.75
79678;BME280;69145;45.544;10.214;2023-07-29T17:44:50;99530.31;;;26.79;60.89
79678;BME280;69145;45.544;10.214;2023-07-29T17:47:16;99531.09;;;26.80;60.80
79678;BME280;69145;45.544;10.214;2023-07-29T17:49:43;99530.81;;;26.81;60.38
79678;BME280;69145;45.544;10.214;2023-07-29T17:52:08;99527.84;;;26.83;60.10
79678;BME280;69145;45.544;10.214;2023-07-29T17:54:43;99520.69;;;26.83;60.48
79678;BME280;69145;45.544;10.214;2023-07-29T17:57:08;99519.69;;;26.79;60.39
79678;BME280;69145;45.544;10.214;2023-07-29T17:59:34;99517.16;;;26.74;60.73
79678;BME280;69145;45.544;10.214;2023-07-29T18:01:59;99510.91;;;26.65;61.22
79678;BME280;69145;45.544;10.214;2023-07-29T18:04:25;99506.81;;;26.59;61.13
79678;BME280;69145;45.544;10.214;2023-07-29T18:06:51;99503.47;;;26.53;61.36
79678;BME280;69145;45.544;10.214;2023-07-29T18:09:16;99497.19;;;26.49;61.46
79678;BME280;69145;45.544;10.214;2023-07-29T18:12:07;99504.16;;;26.45;61.79
79678;BME280;69145;45.544;10.214;2023-07-29T18:14:35;99507.41;;;26.42;61.94
79678;BME280;69145;45.544;10.214;2023-07-29T18:17:00;99508.25;;;26.38;61.99
79678;BME280;69145;45.544;10.214;2023-07-29T18:19:25;99512.00;;;26.37;62.06
79678;BME280;69145;45.544;10.214;2023-07-29T18:21:54;99513.56;;;26.38;62.11
79678;BME280;69145;45.544;10.214;2023-07-29T18:24:20;99518.88;;;26.38;62.01
79678;BME280;69145;45.544;10.214;2023-07-29T18:26:46;99521.81;;;26.36;62.06
79678;BME280;69145;45.544;10.214;2023-07-29T18:29:12;99523.97;;;26.34;61.97
79678;BME280;69145;45.544;10.214;2023-07-29T18:31:37;99514.47;;;26.33;62.14
79678;BME280;69145;45.544;10.214;2023-07-29T18:34:02;99525.38;;;26.32;62.31
79678;BME280;69145;45.544;10.214;2023-07-29T18:36:28;99514.25;;;26.30;62.19
79678;BME280;69145;45.544;10.214;2023-07-29T18:38:55;99517.22;;;26.28;62.09
79678;BME280;69145;45.544;10.214;2023-07-29T18:41:31;99521.13;;;26.31;62.23
79678;BME280;69145;45.544;10.214;2023-07-29T18:46:52;99516.72;;;26.26;62.24
79678;BME280;69145;45.544;10.214;2023-07-29T19:01:46;99535.78;;;26.42;62.18
79678;BME280;69145;45.544;10.214;2023-07-29T19:21:27;99542.19;;;26.41;62.63
79678;BME280;69145;45.544;10.214;2023-07-29T19:27:04;99549.84;;;26.42;62.94
79678;BME280;69145;45.544;10.214;2023-07-29T19:33:53;99554.47;;;26.50;62.77
79678;BME280;69145;45.544;10.214;2023-07-29T19:37:17;99550.75;;;26.51;62.94
79678;BME280;69145;45.544;10.214;2023-07-29T19:43:41;99566.84;;;26.55;63.05
79678;BME280;69145;45.544;10.214;2023-07-29T19:53:40;99567.63;;;26.55;63.18
79678;BME280;69145;45.544;10.214;2023-07-29T20:00:28;99581.38;;;26.57;63.33
79678;BME280;69145;45.544;10.214;2023-07-29T20:09:57;99575.81;;;26.59;63.40
79678;BME280;69145;45.544;10.214;2023-07-29T20:33:12;99569.22;;;26.56;63.05
79678;BME280;69145;45.544;10.214;2023-07-29T20:47:22;99562.81;;;26.57;62.97
79678;BME280;69145;45.544;10.214;2023-07-29T20:50:24;99570.78;;;26.57;63.01
79678;BME280;69145;45.544;10.214;2023-07-29T21:18:20;99597.72;;;26.51;62.89
